AirNav   Duncan Aviation - Near you to keep you flying
 
 1535 users online  

62MO Washburn Farm Airport
Grain Valley, Missouri, USA

GOING TO GRAIN VALLEY?


FAA INFORMATION EFFECTIVE 03 NOVEMBER 2022

Location

FAA Identifier: 62MO
Lat/Long: 39-03-38.0230N 094-12-11.8080W
39-03.633717N 094-12.196800W
39.0605619,-94.2032800
(estimated)
Elevation: 855 ft. / 261 m (estimated)
Variation: 04E (1990)
From city: 3 miles N of GRAIN VALLEY, MO
Time zone: UTC -6 (UTC -5 during Daylight Saving Time)
Zip code: 64029

Airport Operations

Airport use: Private use. Permission required prior to landing
Activation date: 04/1993
Control tower: no
ARTCC: KANSAS CITY CENTER
FSS: COLUMBIA FLIGHT SERVICE STATION
Attendance: UNATNDD
Wind indicator: yes
Segmented circle: no

Airport Communications

WX ASOS at LXT (10 nm SW): 124.175 (816-347-9807)
WX AWOS-3T at GPH (17 nm N): 120.275 (816-407-3399)
WX ASOS at MKC (19 nm W): 120.75 (816-329-2843)

Nearby radio navigation aids

VOR radial/distance  VOR name  Freq  Var
ANXr232/4.0NAPOLEON VORTAC114.0007E
MCIr114/28.3KANSAS CITY VORTAC113.2505E
BQSr201/37.4BRAYMER VOR/DME115.3503E

Airport Services

Runway Information

Runway 9/27

Dimensions: 2600 x 75 ft. / 792 x 23 m
Surface: turf
RUNWAY 9  RUNWAY 27
Traffic pattern: leftleft
Obstructions: none40 ft. trees

Airport Ownership and Management from official FAA records

Ownership: Privately-owned
Owner: JOHN & BARBARA WASHBURN
2908 S. BB HIGHWAY
GRAIN VALLEY, MO 64029
Phone 816-916-7720
Manager: JOHN & BARBARA WASHBURN
2908 S. BB HIGHWAY
GRAIN VALLEY, MO 64029
Phone 816-916-7720

Airport Operational Statistics

Aircraft based on the field: 1
Single engine airplanes: 1
    

Additional Remarks

FOR CD CTC KANSAS CITY APCH AT 816-329-2710.

Instrument Procedures

There are no published instrument procedures at 62MO.

Some nearby airports with instrument procedures:

3GV - East Kansas City Airport (3 nm S)
KLXT - Lee's Summit Municipal Airport (10 nm SW)
3EX - Excelsior Springs Memorial Airport (17 nm N)
KGPH - Midwest National Air Center Airport (17 nm N)
KMKC - Charles B Wheeler Downtown Airport (19 nm W)
 
Loc | Ops | Rwys | IFR | FBO | Links
Com | Nav | Svcs | Stats | Notes
Area around 62MO (Washburn Farm Airport)
 
Road maps at: MapQuest Bing Google
 
Aerial photo
No photo
 
Sectional chart

 
Airport distance calculator
Flying to Washburn Farm Airport? Find the distance to fly.

From to 62MO

Sunrise and sunset
Times for 29-Nov-2022
 Local
(UTC-6)
 Zulu
(UTC)
Morning civil twilight06:4712:47
Sunrise07:1613:16
Sunset16:5422:54
Evening civil twilight17:2423:24

Current date and time
Zulu (UTC)  29-Nov-2022 18:36:31
Local (UTC-6)  29-Nov-2022 12:36:31
 
METAR
KLXT 
9nm SW 
291753Z AUTO 23020G32KT 10SM CLR 14/03 A2950 RMK AO2 PK WND 25038/1719 SLP988 T01390033 10156 20094 51015
KGPH 
17nm N 
291715Z AUTO 23019G23KT 10SM SCT037 15/05 A2947 RMK AO2
KMKC 
19nm W 
291754Z 26012G28KT 10SM CLR 13/03 A2950 RMK AO2 PK WND 26030/1721 SLP988 60000 T01330033 10156 20094 51021
TAF
KMKC 
19nm W 
291728Z 2918/3018 29016G26KT P6SM BKN018 FM300100 32013G23KT P6SM SCT070 FM301200 30010KT P6SM SKC
NOTAMs
Click for the latest NOTAMs
NOTAMs are issued by the DoD/FAA and will open in a separate window not controlled by AirNav.

 

 
 

Would you like to see your business listed on this page?

 If your business provides an interesting product or service to pilots, flight crews, aircraft, or users of the Washburn Farm Airport, you should consider listing it here.  To start the listing process, click on the button below
 
Add a business
 

Other Pages about Washburn Farm Airport

Update a link
 
Copyright © AirNav, LLC. All rights reserved. Privacy Policy  Contact